ADDS METAR Data INFO
IDs: Format: Raw Decoded Include TAF

Data at: 0350 UTC 17 Oct 2017

KDAL 170253Z 06006KT 10SM CLR 14/07 A3028 RMK AO2 SLP251 T01440067 51007
KDAL 170153Z 06006KT 10SM CLR 17/06 A3028 RMK AO2 SLP251 T01670061
KDAL 170053Z 07004KT 10SM CLR 18/07 A3027 RMK AO2 SLP249 T01780067
KDAL 162353Z 04005KT 10SM CLR 21/03 A3026 RMK AO2 SLP244 T02110028 10239 20200 56005
KDAL 162253Z 04005KT 10SM CLR 23/03 A3026 RMK AO2 SLP244 T02280028
KDAL 162153Z 03005KT 10SM CLR 23/02 A3027 RMK AO2 SLP247 T02330022
KDAL 162053Z VRB04KT 10SM CLR 23/03 A3028 RMK AO2 SLP249 T02330028 56035
KDAL 161953Z 05006KT 10SM CLR 23/02 A3031 RMK AO2 SLP259 T02280017
KDAL 161853Z 01004KT 10SM CLR 22/03 A3034 RMK AO2 SLP271 T02170033
KDAL 161753Z COR 00000KT 10SM CLR 20/04 A3038 RMK AO2 SLP285 T02000039 10206 20094 58014
KDAL 161653Z 08004KT 10SM FEW250 19/05 A3041 RMK AO2 SLP293 T01890050
KDAL 161553Z 06009KT 10SM FEW250 18/05 A3042 RMK AO2 SLP299 T01780050
KDAL 161453Z 05009KT 10SM CLR 17/05 A3042 RMK AO2 SLP298 T01670050 53013
KDAL 161353Z 01004KT 10SM CLR 13/06 A3041 RMK AO2 SLP294 T01330061
KDAL 161253Z 35005KT 10SM CLR 10/06 A3039 RMK AO2 SLP289 T01000056
KDAL 161153Z 34004KT 10SM CLR 10/06 A3039 RMK AO2 SLP286 T01000056 10144 20100 53008 $
KDAL 161053Z 35007KT 10SM CLR 11/06 A3037 RMK AO2 SLP281 T01060061 $
KDAL 160953Z 34006KT 10SM CLR 11/06 A3036 RMK AO2 SLP278 T01110061 $
KDAL 160853Z 34005KT 10SM CLR 12/06 A3036 RMK AO2 SLP278 T01170061 50003 $
KDAL 160753Z 34005KT 10SM CLR 12/06 A3037 RMK AO2 SLP279 T01220061 $
KDAL 160653Z 35005KT 10SM CLR 13/06 A3036 RMK AO2 SLP277 T01330061 $
KDAL 160553Z 34007KT 10SM FEW260 14/07 A3035 RMK AO2 SLP274 T01440067 10211 20144 402720144 50004 $
KDAL 160453Z 35007KT 10SM FEW260 15/06 A3036 RMK AO2 SLP276 T01500061 $
KDAL 160353Z 35006KT 10SM FEW260 15/06 A3035 RMK AO2 SLP275 T01500056 $
KDAL 160253Z 01007KT 10SM BKN260 18/04 A3034 RMK AO2 SLP270 T01830039 51026 $
KDAL 160153Z COR 36007KT 10SM FEW210 BKN260 19/04 A3033 RMK AO2 SLP265 T01890039 $
KDAL 160053Z 36012KT 10SM FEW210 BKN300 20/03 A3030 RMK AO2 SLP256 T02000033 $
KDAL 152353Z 01013KT 10SM FEW210 SCT300 21/03 A3026 RMK AO2 SLP243 T02110028 10244 20206 53006 $
KDAL 152253Z 36016G22KT 10SM FEW140 FEW210 SCT300 23/03 A3025 RMK AO2 SLP238 T02330028 $
KDAL 152153Z 36013G22KT 10SM FEW140 SCT210 SCT300 23/04 A3024 RMK AO2 PK WND 01026/2104 SLP235 T02330044 $
KDAL 152053Z 36014G23KT 10SM FEW140 BKN210 BKN300 24/06 A3024 RMK AO2 PK WND 35026/2024 SLP235 BKN210 V SCT T02390056 56012 $
KDAL 151953Z 36016G25KT 10SM FEW140 SCT200 23/07 A3026 RMK AO2 PK WND 35027/1929 SLP239 T02330067 $
KDAL 151853Z 36016G23KT 10SM FEW140 SCT220 22/07 A3026 RMK AO2 PK WND 35026/1754 SLP241 T02220072 $
KDAL 151753Z 35016G21KT 10SM SCT140 SCT220 21/09 A3028 RMK AO2 SLP247 60000 T02110089 10217 20161 50006 $
KDAL 151653Z 01017G23KT 10SM FEW021 SCT140 SCT220 20/11 A3028 RMK AO2 SLP248 T02000106 $
KDAL 151606Z 35014G19KT 10SM SCT019 SCT023 BKN140 18/11 A3028 RMK AO2 T01780111 $
KDAL 151553Z 36014G26KT 10SM SCT019 BKN026 BKN140 17/11 A3028 RMK AO2 PK WND 36026/1547 SLP249 T01670111 $